METAR AND TAF INFORMATION
METAR FOR SBRF
ADDS - METARS form results

(0616 UTC 27 April 2018)
Data provider http://aviationweather.gov/adds/metars/
 
METAR text: SBRF 270600Z 00000KT 9999 FEW023 SCT040 24/22 Q1012
Conditions at: SBRF (RECIFE/GUARARAPE, BR) observed 0600 UTC 27 April 2018
Temperature: 24.0°C (75°F)
Dewpoint: 22.0°C (72°F) [RH = 89%]
Pressure (altimeter): 29.88 inches Hg (1012.0 mb)
Winds: calm
Visibility: 6 or more miles (10+ km)
Ceiling: at least 12,000 feet AGL
Clouds: few clouds at 2300 feet AGL
scattered clouds at 4000 feet AGL
Weather: no significant weather observed at this time

Forecast for: SBRF (RECIFE/GUARARAPE, BR)
Text: TAF SBRF 270200Z 2706/2806 18007KT 8000 SCT015 SCT030 TN25/2708Z TX29/2715Z
Forecast period: 0600 to 1100 UTC 27 April 2018
Forecast type: FROM: standard forecast or significant change
Winds: from the S (180 degrees) at 8 MPH (7 knots; 3.6 m/s)
Visibility: 5 miles (8 km)
Clouds: scattered clouds at 1500 feet AGL
scattered clouds at 3000 feet AGL
Weather: no significant weather forecast for this period
Forecast for: SBRF (RECIFE/GUARARAPE, BR)
Text: TAF SBRF 270200Z 2706/2806 18007KT 8000 SCT015 SCT030 TN25/2708Z TX29/2715Z
Forecast period: 0600 to 1100 UTC 27 April 2018
Forecast type: FROM: standard forecast or significant change
Winds: from the S (180 degrees) at 8 MPH (7 knots; 3.6 m/s)
Visibility: 5 miles (8 km)
Clouds: scattered clouds at 1500 feet AGL
scattered clouds at 3000 feet AGL
Weather: no significant weather forecast for this period
Forecast for: SBRF (RECIFE/GUARARAPE, BR)
Text: TAF SBRF 270200Z 2706/2806 18007KT 8000 SCT015 SCT030 TN25/2708Z TX29/2715Z
Forecast period: 0600 to 0800 UTC 27 April 2018
Forecast type: TEMPORARY: The following changes expected for less than half the time period
Visibility: 2.80 miles (4.51 km)
Clouds: scattered clouds at 1000 feet AGL
scattered clouds at 2000 feet AGL
Weather: SHRA  (rain showers)
Forecast for: SBRF (RECIFE/GUARARAPE, BR)
Text: TAF SBRF 270200Z 2706/2806 18007KT 8000 SCT015 SCT030 TN25/2708Z TX29/2715Z
Forecast period: 0600 to 0800 UTC 27 April 2018
Forecast type: TEMPORARY: The following changes expected for less than half the time period
Visibility: 2.80 miles (4.51 km)
Clouds: scattered clouds at 1000 feet AGL
scattered clouds at 2000 feet AGL
Weather: SHRA  (rain showers)
Forecast for: SBRF (RECIFE/GUARARAPE, BR)
Text: TAF SBRF 270200Z 2706/2806 18007KT 8000 SCT015 SCT030 TN25/2708Z TX29/2715Z
Forecast period: 0900 to 1100 UTC 27 April 2018
Forecast type: TEMPORARY: The following changes expected for less than half the time period
Visibility: 2.80 miles (4.51 km)
Ceiling: 1500 feet AGL
Clouds: scattered clouds at 1000 feet AGL
broken clouds at 1500 feet AGL
Weather: RA  (rain)
Forecast for: SBRF (RECIFE/GUARARAPE, BR)
Text: TAF SBRF 270200Z 2706/2806 18007KT 8000 SCT015 SCT030 TN25/2708Z TX29/2715Z
Forecast period: 0900 to 1100 UTC 27 April 2018
Forecast type: TEMPORARY: The following changes expected for less than half the time period
Visibility: 2.80 miles (4.51 km)
Ceiling: 1500 feet AGL
Clouds: scattered clouds at 1000 feet AGL
broken clouds at 1500 feet AGL
Weather: RA  (rain)
Forecast for: SBRF (RECIFE/GUARARAPE, BR)
Text: TAF SBRF 270200Z 2706/2806 18007KT 8000 SCT015 SCT030 TN25/2708Z TX29/2715Z
Forecast period: 1100 UTC 27 April 2018 to 0000 UTC 28 April 2018
Forecast type: BECOMING: Conditions expected to become as follows by 1300 UTC 27 April 2018
Winds: from the SSE (160 degrees) at 12 MPH (10 knots; 5.2 m/s)
Visibility: 5 miles (8 km)
Clouds: scattered clouds at 1500 feet AGL
scattered clouds at 3000 feet AGL
Weather: no significant weather forecast for this period
Forecast for: SBRF (RECIFE/GUARARAPE, BR)
Text: TAF SBRF 270200Z 2706/2806 18007KT 8000 SCT015 SCT030 TN25/2708Z TX29/2715Z
Forecast period: 1100 UTC 27 April 2018 to 0000 UTC 28 April 2018
Forecast type: BECOMING: Conditions expected to become as follows by 1300 UTC 27 April 2018
Winds: from the SSE (160 degrees) at 12 MPH (10 knots; 5.2 m/s)
Visibility: 5 miles (8 km)
Clouds: scattered clouds at 1500 feet AGL
scattered clouds at 3000 feet AGL
Weather: no significant weather forecast for this period
Forecast for: SBRF (RECIFE/GUARARAPE, BR)
Text: TAF SBRF 270200Z 2706/2806 18007KT 8000 SCT015 SCT030 TN25/2708Z TX29/2715Z
Forecast period: 0000 to 0600 UTC 28 April 2018
Forecast type: BECOMING: Conditions expected to become as follows by 0200 UTC 28 April 2018
Winds: from the S (190 degrees) at 7 MPH (6 knots; 3.1 m/s)
Visibility: 5 miles (8 km)
Clouds: scattered clouds at 1500 feet AGL
scattered clouds at 3000 feet AGL
Weather: no significant weather forecast for this period
Forecast for: SBRF (RECIFE/GUARARAPE, BR)
Text: TAF SBRF 270200Z 2706/2806 18007KT 8000 SCT015 SCT030 TN25/2708Z TX29/2715Z
Forecast period: 0000 to 0600 UTC 28 April 2018
Forecast type: BECOMING: Conditions expected to become as follows by 0200 UTC 28 April 2018
Winds: from the S (190 degrees) at 7 MPH (6 knots; 3.1 m/s)
Visibility: 5 miles (8 km)
Clouds: scattered clouds at 1500 feet AGL
scattered clouds at 3000 feet AGL
Weather: no significant weather forecast for this period

 AIRPORT MAP

 RUNWAY INFORMATION
Runway 18 Runway length 9865 ft Runway width 148 ft
Runway elevation 23 ft Runway displaced threshold 0 ft Runway heading 162
Runway 36 Runway length 9865 ft Runway width 148 ft
Runway elevation 32 ft Runway displaced threshold 0 ft Runway heading 342

 AIRPORT FREQUENCIES
Type APP Name RECIFE APP Frequency 119.1 MHZ
Type ATIS Name ATIS Frequency 127.65 MHZ
Type GND Name GND Frequency 121.85 MHZ
Type OPS Name RECIFE OPS Frequency 122.5 MHZ
Type TWR Name RECIFE TWR Frequency 122.8 MHZ

 AIRPORT NEAR NAVIGATION AIDS
Type VOR-DME Name Recife Frequency 116900 KHZ